• Join FlightAware (Why Join?)
  • Login
  • US Flag 
07:32AM EST


 

Airport Tracker/Info


-or-


 

Live Flight TrackerFlight Track Log ✈ ASQ4538 ✈ 03-May-2013 ✈ KBNA - KIAH

Flight Track Log - Related Links

Times and Time Zones

All times are in EDT time to prevent confusion due to time zone crossing. See the ASQ4538 flight status page for this flight to view local times or setup timezone preferences in your user account.

Time Position Orientation Groundspeed Altitude Reporting Facility
EDT Latitude Longitude Course Direction KTS MPH feet Rate Location/Type
04:00PM 36.1167 -86.6833 256° West 156 180 1,200  Level Nashville TRACON
04:01PM 36.1000 -86.7667 256° West 233 268 4,000 2,100 Climbing Nashville TRACON
04:02PM 36.1000 -86.8167 270° West 246 283 5,500 1,980 Climbing Nashville TRACON
04:03PM 36.0983 -86.9919 269° West 274 315 9,100 1,920 Climbing Memphis Center
04:04PM 36.0989 -87.0972 270° West 288 331 10,800 1,260 Climbing Memphis Center
04:05PM 36.0997 -87.2103 271° West 320 368 11,700 720 Climbing Memphis Center
04:06PM 36.0758 -87.3344 257° West 356 410 12,300 660 Climbing Memphis Center
04:07PM 36.0497 -87.4664 256° West 381 438 13,100 1,200 Climbing Memphis Center
04:09PM 35.9992 -87.7219 256° West 385 443 15,900 1,140 Climbing Memphis Center
04:10PM 35.9764 -87.8331 256° West 385 443 16,600 840 Climbing Memphis Center
04:11PM 35.9478 -87.9647 255° West 385 443 17,600 1,200 Climbing Memphis Center
04:12PM 35.9231 -88.0883 256° West 378 435 19,000 1,080 Climbing Memphis Center
04:13PM 35.8981 -88.2122 256° West 378 435 19,800 780 Climbing Memphis Center
04:14PM 35.8542 -88.3311 246° West 378 435 20,600 1,200 Climbing Memphis Center
04:15PM 35.7975 -88.4425 238° Southwest 383 441 22,200 1,620 Climbing Memphis Center
04:16PM 35.7428 -88.5486 238° Southwest 388 447 23,900 1,800 Climbing Memphis Center
04:17PM 35.7028 -88.6594 246° West 375 432 25,800 1,680 Climbing Memphis Center
04:18PM 35.6708 -88.7725 251° West 361 415 27,300 1,500 Climbing Memphis Center
04:19PM 35.6431 -88.8831 253° West 345 397 28,800 1,320 Climbing Memphis Center
04:20PM 35.6131 -88.9933 252° West 345 397 30,000 1,200 Climbing Memphis Center
04:21PM 35.5789 -89.1139 251° West 345 397 31,200 1,200 Climbing Memphis Center
04:22PM 35.5486 -89.2292 252° West 350 403 32,400 1,200 Climbing Memphis Center
04:23PM 35.5164 -89.3444 251° West 350 403 33,600 1,020 Climbing Memphis Center
04:24PM 35.4839 -89.4594 251° West 355 409 34,500 660 Climbing Memphis Center
04:25PM 35.4514 -89.5772 251° West 367 422 35,000 480 Climbing Memphis Center
04:26PM 35.4164 -89.6997 251° West 377 434 35,500 480 Climbing Memphis Center
04:27PM 35.3817 -89.8247 251° West 385 443 36,000 240 Climbing Memphis Center
04:28PM 35.3425 -89.9550 250° West 398 458 36,000  Level Memphis Center
04:29PM 35.3053 -90.0900 251° West 420 483 36,000  Level Memphis Center
04:30PM 35.2658 -90.2222 250° West 425 489 36,000  Level Memphis Center
04:31PM 35.2264 -90.3569 250° West 425 489 36,000  Level Memphis Center
04:32PM 35.1889 -90.4892 251° West 419 482 36,000  Level Memphis Center
04:33PM 35.1489 -90.6211 250° West 419 482 36,000  Level Memphis Center
04:34PM 35.1111 -90.7556 251° West 419 482 36,000  Level Memphis Center
04:35PM 35.0753 -90.8747 250° West 419 482 36,000  Level Memphis Center
04:36PM 35.0350 -91.0089 250° West 424 488 36,000  Level Memphis Center
04:37PM 34.9967 -91.1431 251° West 422 486 36,000  Level Memphis Center
04:38PM 34.9581 -91.2717 250° West 417 480 36,000  Level Memphis Center
04:39PM 34.9197 -91.3981 250° West 406 467 36,000  Level Memphis Center
04:40PM 34.8808 -91.5242 249° West 401 461 36,000  Level Memphis Center
04:41PM 34.8464 -91.6478 251° West 401 461 36,000  Level Memphis Center
04:42PM 34.8075 -91.7658 248° West 394 453 36,000  Level Memphis Center
04:43PM 34.7686 -91.8867 249° West 388 447 36,000  Level Memphis Center
04:44PM 34.7317 -92.0047 249° West 388 447 36,000  Level Memphis Center
04:45PM 34.6925 -92.1253 248° West 388 447 36,000  Level Memphis Center
04:46PM 34.6017 -92.1939 212° Southwest 367 422 36,000  Level Memphis Center
04:47PM 34.4950 -92.2144 189° South 362 417 36,000  Level Memphis Center
04:48PM 34.3903 -92.2347 189° South 372 428 36,000  Level Memphis Center
04:49PM 34.2814 -92.2550 189° South 391 450 36,000  Level Memphis Center
04:50PM 34.1728 -92.2728 188° South 396 456 36,000  Level Memphis Center
04:53PM 33.9489 -92.3211 190° South 373 429 36,000  Level Fort Worth Center
04:54PM 33.8372 -92.3400 188° South 390 449 36,000  Level Fort Worth Center
04:55PM 33.7272 -92.3589 188° South 400 460 36,000  Level Fort Worth Center
04:56PM 33.6156 -92.3803 189° South 406 467 36,000  Level Fort Worth Center
04:57PM 33.5036 -92.4017 189° South 411 473 36,000  Level Fort Worth Center
04:58PM 33.3958 -92.4178 187° South 406 467 36,000  Level Fort Worth Center
04:59PM 33.2861 -92.4389 189° South 406 467 36,000  Level Fort Worth Center
05:00PM 33.1761 -92.4597 189° South 406 467 36,000  Level Fort Worth Center
05:01PM 33.0683 -92.4783 188° South 406 467 36,000  Level Fort Worth Center
05:02PM 32.9567 -92.4992 189° South 406 467 36,000  Level Fort Worth Center
05:04PM 32.6892 -92.5489 189° South 398 458 36,000  Level Houston Center
05:05PM 32.5761 -92.5686 188° South 399 459 36,000  Level Houston Center
05:06PM 32.4672 -92.5900 189° South 396 456 36,000  Level Houston Center
05:07PM 32.3369 -92.6144 189° South 396 456 36,000  Level Houston Center
05:08PM 32.2269 -92.6322 188° South 399 459 36,000  Level Houston Center
05:09PM 32.1167 -92.6514 188° South 400 460 36,000  Level Houston Center
05:10PM 32.0056 -92.6714 189° South 403 464 36,000  Level Houston Center
05:11PM 31.9142 -92.7375 212° Southwest 397 457 36,000  Level Houston Center
05:12PM 31.8311 -92.8156 219° Southwest 387 445 36,000  Level Houston Center
05:13PM 31.7311 -92.9117 219° Southwest 388 447 36,000  Level Houston Center
05:14PM 31.6472 -92.9925 219° Southwest 390 449 36,000  Level Houston Center
05:15PM 31.5633 -93.0731 219° Southwest 392 451 36,000  Level Houston Center
05:16PM 31.4789 -93.1542 219° Southwest 392 451 36,000  Level Houston Center
05:17PM 31.3936 -93.2361 219° Southwest 396 456 36,000 -300 Level Houston Center
05:19PM 31.2814 -93.2961 205° Southwest 407 468 35,400 -840 Descending Houston Center
05:20PM 31.1522 -93.2817 175° South 431 496 34,300 -1,020 Descending Houston Center
05:21PM 31.0317 -93.2658 174° South 433 498 33,300 -1,020 Descending Houston Center
05:22PM 30.9300 -93.3153 203° Southwest 401 461 32,300 -1,080 Descending Houston Center
05:24PM 30.7958 -93.5081 231° Southwest 387 445 30,000 -1,560 Descending Houston Center
05:25PM 30.7144 -93.6253 231° Southwest 392 451 27,600 -2,220 Descending Houston Center
05:26PM 30.6494 -93.7192 231° Southwest 382 440 25,500 -1,980 Descending Houston Center
05:27PM 30.5858 -93.8106 231° Southwest 372 428 23,600 -1,860 Descending Houston Center
05:28PM 30.5233 -93.9000 231° Southwest 364 419 21,700 -1,800 Descending Houston Center
05:29PM 30.4614 -93.9881 231° Southwest 356 410 19,900 -1,980 Descending Houston Center
05:30PM 30.3883 -94.0925 231° Southwest 352 405 17,700 -2,040 Descending Houston Center
05:31PM 30.3289 -94.1778 231° Southwest 343 395 15,900 -1,800 Descending Houston Center
05:32PM 30.2736 -94.2575 231° Southwest 326 375 14,000 -1,680 Descending Houston Center
05:33PM 30.2197 -94.3331 230° Southwest 312 359 12,400 -1,200 Descending Houston Center
05:34PM 30.1783 -94.4178 241° Southwest 267 307 11,600 -900 Descending Houston Center
05:35PM 30.1422 -94.5000 243° Southwest 268 308 10,600 -1,020 Descending Houston Center
05:36PM 30.1056 -94.5772 241° Southwest 269 310 9,600 -1,020 Descending Houston Center
05:37PM 30.0711 -94.6542 243° Southwest 272 313 8,600 -780 Descending Houston Center
05:38PM 30.0433 -94.7350 248° West 259 298 8,100 -300 Descending Houston Center
05:39PM 30.0214 -94.8150 252° West 261 300 8,000 -240 Descending Houston Center
05:40PM 30.0006 -94.8928 253° West 262 302 7,600 -1,020 Descending Houston Center
05:41PM 29.9928 -94.9778 264° West 246 283 6,000 -1,380 Descending Houston Center
05:42PM 29.9931 -95.0478 270° West 213 245 5,000 -1,200 Descending Houston Center
05:43PM 29.9933 -95.1178 270° West 219 252 3,600 -1,260 Descending Houston Center
05:44PM 29.9925 -95.1758 269° West 186 214 2,600 -1,020 Descending Houston Center
05:45PM 29.9936 -95.2336 271° West 174 200 1,700 -840 Descending Houston Center
05:45PM 29.9936 -95.2381 270° West 187 215 1,600 -720 Descending Houston Center
05:46PM 29.9936 -95.2872 270° West 169 194 800 -660 Descending Houston Center
05:47PM 29.9936 -95.3394 270° West 160 184 300 -540 Descending Houston Center